createdAt,value
2018-07-09T00:00:22.188Z,14.90
2018-07-09T00:02:55.568Z,14.90
2018-07-09T00:05:25.440Z,14.80
2018-07-09T00:07:59.308Z,14.80
2018-07-09T00:10:40.496Z,14.60
2018-07-09T00:13:11.468Z,14.60
2018-07-09T00:15:41.408Z,14.50
2018-07-09T00:18:13.675Z,14.50
2018-07-09T00:20:42.624Z,14.50
2018-07-09T00:23:11.497Z,14.50
2018-07-09T00:25:42.307Z,14.40
2018-07-09T00:28:15.730Z,14.40
2018-07-09T00:31:05.072Z,14.40
2018-07-09T00:33:33.988Z,14.40
2018-07-09T00:36:04.824Z,14.30
2018-07-09T00:38:33.680Z,14.20
2018-07-09T00:41:09.324Z,14.20
2018-07-09T00:43:38.211Z,14.10
2018-07-09T00:46:07.139Z,14.10
2018-07-09T00:48:37.016Z,14.00
2018-07-09T00:51:05.821Z,14.00
2018-07-09T00:53:38.400Z,14.00
2018-07-09T00:56:07.283Z,14.00
2018-07-09T00:58:42.728Z,14.00
2018-07-09T01:01:15.227Z,13.90
2018-07-09T01:06:26.332Z,13.80
2018-07-09T01:08:57.136Z,13.70
2018-07-09T01:11:39.035Z,13.70
2018-07-09T01:14:09.077Z,13.70
2018-07-09T01:16:42.704Z,13.50
2018-07-09T01:19:12.580Z,13.50
2018-07-09T01:21:41.336Z,13.40
2018-07-09T01:24:11.164Z,13.50
2018-07-09T01:26:43.372Z,13.50
2018-07-09T01:29:16.228Z,13.50
2018-07-09T01:31:54.680Z,13.50
2018-07-09T01:34:33.424Z,13.40
2018-07-09T01:37:02.328Z,13.30
2018-07-09T01:39:31.212Z,13.10
2018-07-09T01:42:00.112Z,13.00
2018-07-09T01:44:32.440Z,13.00
2018-07-09T01:47:02.304Z,13.00
2018-07-09T01:49:41.732Z,13.00
2018-07-09T01:52:13.476Z,13.00
2018-07-09T01:54:47.296Z,13.00
2018-07-09T01:57:26.520Z,12.90
2018-07-09T01:59:55.440Z,12.80
2018-07-09T02:02:26.216Z,12.80
2018-07-09T02:07:27.636Z,12.90
2018-07-09T02:09:58.512Z,12.90
2018-07-09T02:12:37.556Z,12.90
2018-07-09T02:17:40.045Z,12.90
2018-07-09T02:20:10.934Z,12.90
2018-07-09T02:22:42.952Z,12.90
2018-07-09T02:25:13.204Z,12.80
2018-07-09T02:27:42.072Z,12.70
2018-07-09T02:30:11.016Z,12.70
2018-07-09T02:32:39.884Z,12.70
2018-07-09T02:35:08.804Z,12.70
2018-07-09T02:37:37.661Z,12.70
2018-07-09T02:40:12.117Z,12.70
2018-07-09T02:42:42.096Z,12.70
2018-07-09T02:45:12.008Z,12.60
2018-07-09T02:47:42.848Z,12.60
2018-07-09T02:50:11.717Z,12.50
2018-07-09T02:52:41.502Z,12.50
2018-07-09T02:55:14.924Z,12.50
2018-07-09T02:57:43.764Z,12.50
2018-07-09T03:00:13.672Z,12.60
2018-07-09T03:02:47.420Z,12.50
2018-07-09T03:05:16.215Z,12.60
2018-07-09T03:07:45.142Z,12.50
2018-07-09T03:10:19.637Z,12.50
2018-07-09T03:12:52.036Z,12.50
2018-07-09T03:15:20.888Z,12.50
2018-07-09T03:17:49.784Z,12.40
2018-07-09T03:20:18.697Z,12.40
2018-07-09T03:22:49.521Z,12.40
2018-07-09T03:25:19.337Z,12.40
2018-07-09T03:27:51.260Z,12.40
2018-07-09T03:30:26.681Z,12.40
2018-07-09T03:33:05.704Z,12.30
2018-07-09T03:35:41.452Z,12.30
2018-07-09T03:38:17.516Z,12.30
2018-07-09T03:40:46.352Z,12.20
2018-07-09T03:43:16.132Z,12.20
2018-07-09T03:45:49.852Z,12.20
2018-07-09T03:48:31.584Z,12.20
2018-07-09T03:51:04.731Z,12.20
2018-07-09T03:53:37.632Z,12.20
2018-07-09T03:56:07.466Z,12.20
2018-07-09T03:58:37.331Z,12.30
2018-07-09T04:01:15.792Z,12.40
2018-07-09T04:03:44.644Z,12.50
2018-07-09T04:08:55.129Z,12.80
2018-07-09T04:11:24.095Z,13.00
2018-07-09T04:13:57.928Z,13.10
2018-07-09T04:16:26.796Z,13.20
2018-07-09T04:18:59.388Z,13.20
2018-07-09T04:21:28.272Z,13.30
2018-07-09T04:23:57.055Z,13.40
2018-07-09T04:26:25.868Z,13.50
2018-07-09T04:28:59.856Z,13.50
2018-07-09T04:31:28.697Z,13.60
2018-07-09T04:33:59.492Z,13.60
2018-07-09T04:36:36.952Z,13.60
2018-07-09T04:39:07.508Z,13.70
2018-07-09T04:41:36.764Z,13.80
2018-07-09T04:44:12.248Z,13.90
2018-07-09T04:46:41.028Z,14.00
2018-07-09T04:49:11.832Z,14.10
2018-07-09T04:51:40.626Z,14.30
2018-07-09T04:57:06.464Z,14.50
2018-07-09T04:59:41.840Z,14.60
2018-07-09T05:02:16.420Z,14.80
2018-07-09T05:04:51.000Z,15.00
2018-07-09T05:15:45.033Z,15.90
2018-07-09T05:18:15.889Z,16.20
2018-07-09T05:20:44.819Z,16.30
2018-07-09T05:23:13.684Z,16.50
2018-07-09T05:25:42.512Z,16.70
2018-07-09T05:28:12.381Z,16.80
2018-07-09T05:30:42.335Z,17.10
2018-07-09T05:33:19.325Z,17.20
2018-07-09T05:35:51.536Z,17.40
2018-07-09T05:38:22.348Z,17.60
2018-07-09T05:40:51.248Z,17.80
2018-07-09T05:43:21.068Z,18.10
2018-07-09T05:45:51.959Z,18.50
2018-07-09T05:48:20.820Z,19.00
2018-07-09T05:50:52.736Z,19.60
2018-07-09T05:53:21.672Z,20.20
2018-07-09T05:56:08.652Z,20.60
2018-07-09T05:58:37.471Z,21.00
2018-07-09T06:01:14.524Z,21.60
2018-07-09T06:03:47.905Z,22.10
2018-07-09T06:06:16.759Z,22.40
2018-07-09T06:08:46.012Z,22.70
2018-07-09T06:11:28.238Z,22.80
2018-07-09T06:14:00.099Z,22.40
2018-07-09T06:16:41.040Z,21.90
2018-07-09T06:19:11.807Z,22.00
2018-07-09T06:21:40.736Z,22.10
2018-07-09T06:24:11.539Z,22.10
2018-07-09T06:27:00.451Z,22.30
2018-07-09T06:29:29.291Z,22.50
2018-07-09T06:31:59.172Z,22.80
2018-07-09T06:34:34.883Z,23.10
2018-07-09T06:39:45.119Z,23.60
2018-07-09T06:42:14.879Z,23.60
2018-07-09T06:44:46.774Z,23.80
2018-07-09T06:47:16.490Z,24.10
2018-07-09T06:49:57.834Z,24.40
2018-07-09T06:52:31.567Z,24.70
2018-07-09T06:55:04.351Z,24.70
2018-07-09T06:57:33.203Z,24.80
2018-07-09T07:00:05.805Z,25.10
2018-07-09T07:02:40.104Z,25.20
2018-07-09T07:05:08.979Z,25.30
2018-07-09T07:07:43.731Z,25.40
2018-07-09T07:10:16.144Z,25.40
2018-07-09T07:12:49.120Z,25.80
2018-07-09T07:15:19.861Z,26.10
2018-07-09T07:17:51.743Z,26.40
2018-07-09T07:20:20.466Z,26.60
2018-07-09T07:22:55.287Z,26.80
2018-07-09T07:25:34.435Z,26.90
2018-07-09T07:28:08.907Z,27.30
2018-07-09T07:30:40.823Z,27.40
2018-07-09T07:33:17.494Z,27.60
2018-07-09T07:35:46.354Z,27.80
2018-07-09T07:38:17.101Z,27.80
2018-07-09T07:40:51.907Z,27.70
2018-07-09T07:43:21.655Z,27.60
2018-07-09T07:45:55.557Z,27.30
2018-07-09T07:48:25.283Z,27.10
2018-07-09T07:51:00.831Z,27.10
2018-07-09T07:53:33.139Z,27.10
2018-07-09T07:56:02.938Z,27.20
2018-07-09T07:58:31.670Z,27.40
2018-07-09T08:01:06.091Z,27.40
2018-07-09T08:03:40.335Z,27.50
2018-07-09T08:06:13.151Z,27.50
2018-07-09T08:08:41.910Z,27.40
2018-07-09T08:11:47.725Z,27.50
2018-07-09T08:13:54.538Z,27.80
2018-07-09T08:16:25.322Z,28.60
2018-07-09T08:19:00.047Z,29.20
2018-07-09T08:21:35.859Z,29.30
2018-07-09T08:24:09.571Z,29.40
2018-07-09T08:26:40.413Z,30.00
2018-07-09T08:29:09.178Z,30.30
2018-07-09T08:31:39.955Z,31.10
2018-07-09T08:34:09.687Z,32.20
2018-07-09T08:36:38.563Z,33.00
2018-07-09T08:39:07.358Z,33.90
2018-07-09T08:41:40.312Z,34.10
2018-07-09T08:44:09.090Z,34.30
2018-07-09T08:46:37.866Z,34.50
2018-07-09T08:49:09.874Z,34.30
2018-07-09T08:54:14.731Z,32.60
2018-07-09T08:56:43.574Z,31.20
2018-07-09T08:59:18.559Z,30.20
2018-07-09T09:01:49.363Z,30.50
2018-07-09T09:04:24.115Z,30.40
2018-07-09T09:06:52.955Z,29.70
2018-07-09T09:09:28.027Z,29.10
2018-07-09T09:12:04.795Z,29.20
2018-07-09T09:14:33.663Z,29.10
2018-07-09T09:17:02.466Z,29.20
2018-07-09T09:19:38.368Z,29.10
2018-07-09T09:25:06.598Z,28.70
2018-07-09T09:27:35.418Z,28.90
2018-07-09T09:30:07.370Z,30.00
2018-07-09T09:32:41.169Z,30.10
2018-07-09T09:35:09.922Z,30.70
2018-07-09T09:37:39.658Z,31.60
2018-07-09T09:40:11.909Z,32.20
2018-07-09T09:42:40.614Z,32.20
2018-07-09T09:45:21.150Z,32.10
2018-07-09T09:47:51.886Z,31.80
2018-07-09T09:50:20.621Z,31.20
2018-07-09T09:55:28.546Z,32.10
2018-07-09T09:58:07.979Z,31.10
2018-07-09T10:00:45.126Z,30.20
2018-07-09T10:03:13.866Z,29.40
2018-07-09T10:05:42.682Z,28.20
2018-07-09T10:08:12.413Z,27.30
2018-07-09T10:10:48.765Z,27.70
2018-07-09T10:13:24.458Z,28.10
2018-07-09T10:15:53.175Z,29.10
2018-07-09T10:18:25.597Z,29.40
2018-07-09T10:20:56.342Z,30.20
2018-07-09T10:23:25.072Z,30.90
2018-07-09T10:25:53.874Z,32.20
2018-07-09T10:28:25.806Z,33.90
2018-07-09T10:30:55.546Z,35.40
2018-07-09T10:33:28.278Z,33.60
2018-07-09T10:35:57.070Z,34.00
2018-07-09T10:38:25.902Z,34.60
2018-07-09T10:41:17.474Z,35.60
2018-07-09T10:43:49.938Z,36.60
2018-07-09T10:46:21.890Z,36.60
2018-07-09T10:48:58.058Z,34.70
2018-07-09T10:51:26.794Z,33.00
2018-07-09T10:53:57.510Z,31.10
2018-07-09T10:56:27.271Z,29.70
2018-07-09T10:59:00.150Z,28.40
2018-07-09T11:01:34.474Z,27.60
2018-07-09T11:04:06.926Z,27.30
2018-07-09T11:06:36.754Z,27.40
2018-07-09T11:09:08.734Z,27.70
2018-07-09T11:11:38.458Z,29.80
2018-07-09T11:14:08.223Z,32.40
2018-07-09T11:16:37.094Z,33.00
2018-07-09T11:19:07.839Z,34.70
2018-07-09T11:21:36.735Z,37.50
2018-07-09T11:24:08.614Z,39.90
2018-07-09T11:26:37.341Z,39.40
2018-07-09T11:29:07.087Z,37.70
2018-07-09T11:31:39.158Z,36.10
2018-07-09T11:37:01.938Z,32.20
2018-07-09T11:39:30.742Z,29.90
2018-07-09T11:42:12.079Z,28.70
2018-07-09T11:44:48.406Z,27.80
2018-07-09T11:47:19.070Z,27.40
2018-07-09T11:49:47.894Z,27.60
2018-07-09T11:52:27.070Z,27.90
2018-07-09T11:54:55.946Z,28.80
2018-07-09T11:57:29.888Z,30.30
2018-07-09T11:59:58.631Z,30.00
2018-07-09T12:02:33.458Z,30.20
2018-07-09T12:05:15.707Z,31.30
2018-07-09T12:07:44.531Z,30.60
2018-07-09T12:10:13.338Z,29.90
2018-07-09T12:12:42.103Z,31.40
2018-07-09T12:15:10.838Z,33.60
2018-07-09T12:17:39.968Z,34.80
2018-07-09T12:20:08.798Z,36.20
2018-07-09T12:22:37.550Z,35.00
2018-07-09T12:25:06.314Z,33.70
2018-07-09T12:27:38.242Z,31.30
2018-07-09T12:30:06.973Z,29.70
2018-07-09T12:32:40.066Z,29.20
2018-07-09T12:35:17.294Z,29.40
2018-07-09T12:37:46.092Z,29.10
2018-07-09T12:40:20.930Z,29.00
2018-07-09T12:42:49.678Z,29.10
2018-07-09T12:45:25.426Z,29.90
2018-07-09T12:47:58.024Z,30.20
2018-07-09T12:50:26.846Z,30.70
2018-07-09T12:52:58.957Z,31.50
2018-07-09T12:55:31.690Z,33.50
2018-07-09T12:58:01.462Z,36.70
2018-07-09T13:00:30.227Z,38.30
2018-07-09T13:02:58.962Z,36.80
2018-07-09T13:08:02.251Z,34.00
2018-07-09T13:10:32.354Z,32.20
2018-07-09T13:13:04.450Z,30.30
2018-07-09T13:15:33.178Z,29.00
2018-07-09T13:18:07.175Z,30.20
2018-07-09T13:20:36.005Z,32.10
2018-07-09T13:23:11.245Z,31.20
2018-07-09T13:25:45.774Z,33.00
2018-07-09T13:28:21.018Z,32.80
2018-07-09T13:31:01.933Z,33.40
2018-07-09T13:33:36.319Z,34.00
2018-07-09T13:36:23.356Z,34.10
2018-07-09T13:38:52.214Z,33.50
2018-07-09T13:41:28.078Z,31.70
2018-07-09T13:44:01.150Z,30.40
2018-07-09T13:46:30.949Z,29.40
2018-07-09T13:49:13.630Z,28.40
2018-07-09T13:51:58.014Z,27.90
2018-07-09T13:54:26.820Z,28.70
2018-07-09T13:57:05.910Z,30.40
2018-07-09T13:59:38.378Z,30.10
2018-07-09T14:02:12.726Z,30.60
2018-07-09T14:04:46.997Z,29.30
2018-07-09T14:07:31.058Z,28.50
2018-07-09T14:09:59.818Z,27.40
2018-07-09T14:12:31.990Z,27.10
2018-07-09T14:15:00.865Z,27.40
2018-07-09T14:17:29.614Z,27.70
2018-07-09T14:20:13.682Z,30.40
2018-07-09T14:22:43.419Z,33.50
2018-07-09T14:25:13.156Z,35.80
2018-07-09T14:27:53.006Z,37.10
2018-07-09T14:30:21.759Z,38.70
2018-07-09T14:35:44.558Z,34.40
2018-07-09T14:38:36.142Z,31.90
2018-07-09T14:41:10.534Z,31.10
2018-07-09T14:43:45.021Z,33.00
2018-07-09T14:46:15.738Z,34.10
2018-07-09T14:48:46.470Z,35.60
2018-07-09T14:51:20.226Z,36.10
2018-07-09T14:53:49.950Z,37.40
2018-07-09T14:56:21.910Z,36.40
2018-07-09T14:58:50.742Z,34.00
2018-07-09T15:01:19.466Z,32.20
2018-07-09T15:03:55.026Z,32.00
2018-07-09T15:06:31.826Z,30.00
2018-07-09T15:09:08.678Z,28.60
2018-07-09T15:11:37.735Z,27.70
2018-07-09T15:14:25.961Z,27.40
2018-07-09T15:17:19.454Z,27.50
2018-07-09T15:19:49.273Z,27.70
2018-07-09T15:22:23.714Z,27.80
2018-07-09T15:24:53.490Z,27.70
2018-07-09T15:27:22.226Z,27.40
2018-07-09T15:29:51.043Z,28.40
2018-07-09T15:32:33.617Z,30.90
2018-07-09T15:38:12.917Z,31.10
2018-07-09T15:41:00.921Z,29.90
2018-07-09T15:44:04.061Z,28.80
2018-07-09T15:49:04.945Z,32.00
2018-07-09T15:51:33.665Z,33.60
2018-07-09T15:54:02.518Z,32.20
2018-07-09T15:56:31.293Z,30.90
2018-07-09T15:59:11.501Z,30.30
2018-07-09T16:01:45.077Z,30.80
2018-07-09T16:04:19.425Z,31.40
2018-07-09T16:07:07.970Z,31.40
2018-07-09T16:09:36.811Z,31.00
2018-07-09T16:12:13.289Z,31.30
2018-07-09T16:15:04.537Z,30.60
2018-07-09T16:17:36.893Z,30.70
2018-07-09T16:23:21.585Z,30.60
2018-07-09T16:25:51.325Z,31.30
2018-07-09T16:28:25.405Z,32.60
2018-07-09T16:33:48.817Z,33.90
2018-07-09T16:36:21.415Z,33.20
2018-07-09T16:38:55.801Z,31.60
2018-07-09T16:41:32.669Z,30.70
2018-07-09T16:44:05.405Z,30.40
2018-07-09T16:46:37.941Z,29.30
2018-07-09T16:49:08.621Z,29.20
2018-07-09T16:51:46.561Z,29.70
2018-07-09T16:54:15.301Z,29.90
2018-07-09T16:56:54.925Z,29.90
2018-07-09T16:59:33.853Z,29.90
2018-07-09T17:02:02.589Z,29.80
2018-07-09T17:04:37.117Z,29.70
2018-07-09T17:07:06.039Z,29.60
2018-07-09T17:09:39.477Z,28.80
2018-07-09T17:12:08.253Z,28.90
2018-07-09T17:14:36.989Z,29.00
2018-07-09T17:17:07.737Z,28.20
2018-07-09T17:19:36.465Z,27.80
2018-07-09T17:22:12.754Z,27.60
2018-07-09T17:24:56.446Z,27.30
2018-07-09T17:27:25.295Z,27.20
2018-07-09T17:29:54.941Z,27.40
2018-07-09T17:32:25.838Z,27.80
2018-07-09T17:34:54.629Z,27.70
2018-07-09T17:37:27.089Z,27.80
2018-07-09T17:39:56.849Z,27.90
2018-07-09T17:47:29.776Z,27.40
2018-07-09T17:49:58.576Z,27.20
2018-07-09T17:52:27.365Z,26.90
2018-07-09T17:54:56.141Z,26.90
2018-07-09T17:57:30.738Z,26.90
2018-07-09T18:00:02.981Z,26.90
2018-07-09T18:02:36.745Z,26.50
2018-07-09T18:05:16.029Z,26.20
2018-07-09T18:07:49.332Z,25.80
2018-07-09T18:10:20.181Z,25.30
2018-07-09T18:12:49.865Z,24.70
2018-07-09T18:15:30.319Z,24.40
2018-07-09T18:18:10.184Z,24.20
2018-07-09T18:20:39.009Z,24.00
2018-07-09T18:23:13.382Z,23.80
2018-07-09T18:25:42.241Z,23.60
2018-07-09T18:28:23.309Z,23.50
2018-07-09T18:30:55.785Z,23.30
2018-07-09T18:33:24.542Z,23.20
2018-07-09T18:36:11.816Z,23.10
2018-07-09T18:38:41.098Z,23.00
2018-07-09T18:41:17.409Z,22.80
2018-07-09T18:43:51.528Z,22.70
2018-07-09T18:46:25.909Z,22.60
2018-07-09T18:48:56.908Z,22.50
2018-07-09T18:51:31.333Z,22.40
2018-07-09T18:54:04.213Z,22.30
2018-07-09T18:56:36.260Z,22.20
2018-07-09T18:59:10.277Z,22.10
2018-07-09T19:04:48.399Z,21.90
2018-07-09T19:07:26.393Z,21.70
2018-07-09T19:10:00.178Z,21.60
2018-07-09T19:12:35.232Z,21.50
2018-07-09T19:15:05.929Z,21.50
2018-07-09T19:18:00.565Z,21.40
2018-07-09T19:20:40.712Z,21.40
2018-07-09T19:23:09.096Z,21.20
2018-07-09T19:25:54.672Z,21.00
2018-07-09T19:28:24.357Z,21.00
2018-07-09T19:30:52.104Z,20.80
2018-07-09T19:33:32.041Z,20.70
2018-07-09T19:38:54.210Z,20.80
2018-07-09T19:41:29.453Z,20.70
2018-07-09T19:46:35.313Z,20.50
2018-07-09T19:54:06.168Z,20.20
2018-07-09T19:56:35.897Z,20.00
2018-07-09T19:59:04.528Z,19.90
2018-07-09T20:01:34.204Z,19.80
2018-07-09T20:04:01.961Z,19.80
2018-07-09T20:06:31.608Z,19.80
2018-07-09T20:09:10.081Z,19.70
2018-07-09T20:11:49.660Z,19.50
2018-07-09T20:14:23.572Z,19.40
2018-07-09T20:16:57.836Z,19.30
2018-07-09T20:19:29.236Z,19.20
2018-07-09T20:22:01.940Z,19.10
2018-07-09T20:24:34.712Z,19.20
2018-07-09T20:27:05.632Z,19.10
2018-07-09T20:29:33.328Z,19.00
2018-07-09T20:32:02.033Z,18.90
2018-07-09T20:34:31.748Z,18.90
2018-07-09T20:37:07.542Z,18.80
2018-07-09T20:39:35.324Z,18.80
2018-07-09T20:42:07.456Z,18.70
2018-07-09T20:47:28.428Z,18.50
2018-07-09T20:50:16.117Z,18.30
2018-07-09T20:52:49.604Z,18.20
2018-07-09T20:55:21.068Z,18.10
2018-07-09T20:57:49.752Z,18.00
2018-07-09T21:00:21.616Z,18.00
2018-07-09T21:02:49.596Z,17.90
2018-07-09T21:05:17.325Z,18.00
2018-07-09T21:07:48.896Z,18.00
2018-07-09T21:10:16.784Z,18.10
2018-07-09T21:12:58.581Z,18.30
2018-07-09T21:15:28.481Z,18.30
2018-07-09T21:17:57.148Z,18.40
2018-07-09T21:20:25.932Z,18.50
2018-07-09T21:22:59.021Z,18.60
2018-07-09T21:25:33.776Z,18.60
2018-07-09T21:28:02.540Z,18.60
2018-07-09T21:30:30.296Z,18.60
2018-07-09T21:33:01.761Z,18.50
2018-07-09T21:35:30.556Z,18.50
2018-07-09T21:38:01.381Z,18.30
2018-07-09T21:40:29.040Z,18.30
2018-07-09T21:42:57.820Z,18.20
2018-07-09T21:45:28.907Z,18.20
2018-07-09T21:48:10.558Z,18.10
2018-07-09T21:50:28.068Z,18.00
2018-07-09T21:52:57.835Z,17.90
2018-07-09T21:55:29.450Z,17.80
2018-07-09T21:57:57.199Z,17.80
2018-07-09T22:00:32.653Z,17.80
2018-07-09T22:03:00.427Z,17.70
2018-07-09T22:05:28.156Z,17.60
2018-07-09T22:07:56.824Z,17.50
2018-07-09T22:10:24.600Z,17.50
2018-07-09T22:12:55.804Z,17.30
2018-07-09T22:15:23.576Z,17.00
2018-07-09T22:17:53.228Z,16.70
2018-07-09T22:20:24.164Z,16.40
2018-07-09T22:22:55.951Z,16.20
2018-07-09T22:25:23.736Z,15.90
2018-07-09T22:27:52.436Z,15.70
2018-07-09T22:30:27.132Z,15.70
2018-07-09T22:35:33.980Z,15.60
2018-07-09T22:38:04.824Z,15.70
2018-07-09T22:40:33.724Z,15.80
2018-07-09T22:43:12.332Z,15.70
2018-07-09T22:45:43.116Z,15.60
2018-07-09T22:48:15.644Z,15.40
2018-07-09T22:50:50.108Z,15.30
2018-07-09T22:53:18.961Z,15.20
2018-07-09T22:55:59.308Z,15.20
2018-07-09T22:58:34.972Z,15.20
2018-07-09T23:01:05.888Z,15.30
2018-07-09T23:03:34.856Z,15.30
2018-07-09T23:06:05.784Z,15.40
2018-07-09T23:08:53.428Z,15.50
2018-07-09T23:12:37.064Z,15.60
2018-07-09T23:15:31.124Z,15.60
2018-07-09T23:18:11.492Z,15.80
2018-07-09T23:22:54.188Z,15.90
2018-07-09T23:25:25.532Z,16.00
2018-07-09T23:27:57.328Z,16.00
2018-07-09T23:30:25.108Z,15.90
2018-07-09T23:32:56.832Z,16.00
2018-07-09T23:35:24.616Z,16.00
2018-07-09T23:37:53.420Z,16.10
2018-07-09T23:40:21.248Z,16.10
2018-07-09T23:42:49.924Z,16.20
2018-07-09T23:45:17.688Z,16.20
2018-07-09T23:47:56.236Z,16.20
2018-07-09T23:50:36.995Z,16.20
2018-07-09T23:53:06.796Z,16.20
2018-07-09T23:55:36.191Z,16.20
2018-07-09T23:59:20.236Z,16.20
